Time;durP1;ratioP1;P1;durP2;ratioP2;P2;SDS_P1;SDS_P2;PMS_P1;PMS_P2;Temp;Humidity;BMP_temperature;BMP_pressure;BME280_temperature;BME280_humidity;BME280_pressure;Samples;Min_cycle;Max_cycle;Signal;HPM_P1;HPM_P2
2023/03/26 00:00:14;;;;;;;5.82;2.10;;;;;;;5.81;100.00;95360.75;5011812;28;20061;-75
2023/03/26 00:02:41;;;;;;;3.83;1.75;;;;;;;5.76;100.00;95365.28;5011674;28;20492;-76
2023/03/26 00:05:09;;;;;;;6.95;1.67;;;;;;;5.69;100.00;95357.06;5011785;28;20140;-75
2023/03/26 00:07:37;;;;;;;7.32;1.90;;;;;;;5.44;100.00;95369.44;5011277;28;20049;-75
2023/03/26 00:10:03;;;;;;;3.05;1.08;;;;;;;5.29;100.00;95371.03;5009784;28;20045;-75
2023/03/26 00:12:30;;;;;;;2.58;1.23;;;;;;;5.44;100.00;95366.88;5011733;28;20045;-76
2023/03/26 00:14:56;;;;;;;2.80;1.00;;;;;;;5.48;100.00;95369.22;5011425;28;20045;-75
2023/03/26 00:17:24;;;;;;;3.88;1.38;;;;;;;5.45;100.00;95369.41;5011538;28;20132;-75
2023/03/26 00:19:52;;;;;;;3.83;1.70;;;;;;;5.37;100.00;95366.34;5011142;28;20049;-75
2023/03/26 00:22:19;;;;;;;3.65;1.30;;;;;;;5.40;100.00;95366.19;5011412;28;20058;-76
2023/03/26 00:24:48;;;;;;;1.35;1.05;;;;;;;5.49;100.00;95359.81;5009796;28;20049;-77
2023/03/26 00:27:14;;;;;;;3.83;1.33;;;;;;;5.53;100.00;95354.44;5010875;28;20107;-76
2023/03/26 00:29:41;;;;;;;3.92;1.42;;;;;;;5.50;100.00;95359.72;5009898;28;20050;-75
2023/03/26 00:32:07;;;;;;;4.18;1.48;;;;;;;5.47;100.00;95357.28;5011444;28;20050;-75
2023/03/26 00:34:34;;;;;;;4.97;1.52;;;;;;;5.54;100.00;95356.09;5011477;28;20049;-74
2023/03/26 00:37:02;;;;;;;2.70;1.48;;;;;;;5.57;100.00;95350.81;5011069;28;20041;-75
2023/03/26 00:39:32;;;;;;;8.82;1.98;;;;;;;5.90;100.00;95344.88;5010341;28;20489;-75
2023/03/26 00:42:05;;;;;;;5.82;1.73;;;;;;;6.05;100.00;95335.56;5006170;28;20045;-75
2023/03/26 00:44:32;;;;;;;10.32;1.90;;;;;;;5.97;100.00;95333.41;5004036;28;20056;-76
2023/03/26 00:46:58;;;;;;;6.10;1.48;;;;;;;5.86;100.00;95330.53;5010936;28;20049;-76
2023/03/26 00:49:26;;;;;;;6.50;1.58;;;;;;;5.96;100.00;95326.56;5010932;28;20053;-75
2023/03/26 00:51:52;;;;;;;5.47;1.65;;;;;;;5.82;100.00;95332.41;5010959;28;20077;-75
2023/03/26 00:54:19;;;;;;;5.15;1.52;;;;;;;5.85;100.00;95331.41;5010983;28;20062;-75
2023/03/26 00:56:45;;;;;;;8.00;1.83;;;;;;;5.82;100.00;95331.56;5011037;28;20046;-75
2023/03/26 00:59:13;;;;;;;8.02;1.80;;;;;;;5.75;100.00;95333.63;5002815;28;20523;-76
2023/03/26 01:01:40;;;;;;;8.60;1.60;;;;;;;5.76;100.00;95329.31;5010576;28;20460;-75
2023/03/26 01:04:26;;;;;;;5.15;1.60;;;;;;;5.64;100.00;95325.63;5010807;28;20650;-76
2023/03/26 01:06:54;;;;;;;7.53;1.80;;;;;;;5.51;100.00;95319.44;5010254;28;20041;-76
2023/03/26 01:09:31;;;;;;;5.03;1.80;;;;;;;5.45;100.00;95305.19;5010973;28;20053;-76
2023/03/26 01:12:00;;;;;;;6.18;1.80;;;;;;;5.55;100.00;95298.66;5010993;28;20043;-75
2023/03/26 01:14:28;;;;;;;9.38;1.70;;;;;;;5.59;100.00;95292.44;5010730;28;20447;-75
2023/03/26 01:16:57;;;;;;;4.40;1.58;;;;;;;5.58;100.00;95300.25;5008860;28;20045;-75
2023/03/26 01:19:29;;;;;;;5.50;1.83;;;;;;;5.52;100.00;95303.13;5013431;28;20053;-75
2023/03/26 01:21:56;;;;;;;3.30;1.30;;;;;;;5.48;100.00;95302.44;5012586;28;20092;-75
2023/03/26 01:24:24;;;;;;;7.55;1.92;;;;;;;5.49;100.00;95301.56;5014596;28;20076;-76
2023/03/26 01:27:23;;;;;;;4.63;1.48;;;;;;;5.38;100.00;95306.41;5014227;28;20050;-76
2023/03/26 01:29:54;;;;;;;2.88;1.23;;;;;;;5.28;100.00;95294.91;5009516;28;20440;-75
2023/03/26 01:32:37;;;;;;;5.32;1.58;;;;;;;5.28;100.00;95290.59;5014667;28;20046;-75
2023/03/26 01:35:11;;;;;;;;;;;;;;;5.32;100.00;95283.59;5014568;28;20080;-75
2023/03/26 01:37:51;;;;;;;4.55;1.70;;;;;;;5.36;100.00;95274.81;5007492;28;19928;-75
2023/03/26 01:40:26;;;;;;;4.45;1.52;;;;;;;5.37;100.00;95273.91;5014156;28;20052;-75
2023/03/26 01:42:58;;;;;;;7.80;2.10;;;;;;;5.19;100.00;95264.56;5014218;28;20046;-75
2023/03/26 01:45:28;;;;;;;5.90;2.08;;;;;;;5.03;100.00;95265.31;5014451;28;20050;-75
2023/03/26 01:47:56;;;;;;;4.72;1.58;;;;;;;4.97;100.00;95257.94;5013315;28;20053;-76
2023/03/26 01:50:22;;;;;;;5.55;2.08;;;;;;;4.97;100.00;95246.81;5014211;28;20046;-75
2023/03/26 01:52:49;;;;;;;7.43;2.85;;;;;;;4.94;100.00;95245.25;5014175;28;20062;-75
2023/03/26 01:55:16;;;;;;;6.45;4.15;;;;;;;4.94;100.00;95227.28;5013590;28;20049;-75
2023/03/26 01:57:54;;;;;;;5.78;3.08;;;;;;;4.93;100.00;95223.06;5013680;28;20045;-75
2023/03/26 02:00:28;;;;;;;7.68;3.30;;;;;;;4.98;100.00;95218.53;5005987;28;20057;-74
2023/03/26 02:03:04;;;;;;;9.55;6.03;;;;;;;4.93;100.00;95215.38;5012067;28;20053;-75
2023/03/26 02:05:36;;;;;;;7.65;4.40;;;;;;;4.95;100.00;95210.97;5006016;28;20397;-75
2023/03/26 02:08:10;;;;;;;6.10;2.70;;;;;;;4.95;100.00;95197.31;5013698;28;20405;-75
2023/03/26 02:10:42;;;;;;;4.18;1.92;;;;;;;4.85;100.00;95191.78;5010509;28;20052;-75
2023/03/26 02:13:11;;;;;;;4.28;1.70;;;;;;;4.77;100.00;95189.63;5013757;28;20065;-75
2023/03/26 02:15:39;;;;;;;3.63;1.50;;;;;;;4.79;100.00;95187.00;5013982;28;20112;-76
2023/03/26 02:18:09;;;;;;;4.43;1.77;;;;;;;4.85;100.00;95192.63;5010731;28;20050;-76
2023/03/26 02:20:36;;;;;;;6.07;2.25;;;;;;;4.98;100.00;95187.72;5013791;28;20128;-75
2023/03/26 02:23:02;;;;;;;4.00;1.90;;;;;;;4.98;100.00;95177.47;5013121;28;20057;-75
2023/03/26 02:25:29;;;;;;;4.63;1.65;;;;;;;5.06;100.00;95177.06;5012921;28;20063;-75
2023/03/26 02:27:55;;;;;;;4.80;1.83;;;;;;;5.13;100.00;95181.00;5013297;28;20050;-75
2023/03/26 02:30:25;;;;;;;3.78;1.23;;;;;;;5.15;100.00;95184.28;5012930;28;20081;-75
2023/03/26 02:32:53;;;;;;;5.15;1.13;;;;;;;5.09;100.00;95174.34;5008257;28;20052;-76
2023/03/26 02:35:20;;;;;;;2.67;1.10;;;;;;;5.14;100.00;95181.81;5012901;28;20146;-75
2023/03/26 02:37:49;;;;;;;3.78;1.40;;;;;;;5.05;100.00;95173.69;5012950;28;20578;-75
2023/03/26 02:40:17;;;;;;;3.65;1.58;;;;;;;4.98;100.00;95174.91;5013237;28;20197;-75
2023/03/26 02:42:44;;;;;;;3.85;1.33;;;;;;;4.97;100.00;95180.09;5012608;28;20054;-75
2023/03/26 02:45:10;;;;;;;3.63;1.02;;;;;;;5.06;100.00;95159.94;5013175;28;20056;-75
2023/03/26 02:47:38;;;;;;;2.25;1.20;;;;;;;5.04;100.00;95156.63;5012819;28;20524;-76
2023/03/26 02:50:07;;;;;;;4.38;1.65;;;;;;;5.10;100.00;95146.03;5013114;28;20050;-75
2023/03/26 02:52:34;;;;;;;2.17;1.23;;;;;;;5.14;100.00;95148.44;5012985;28;20073;-74
2023/03/26 02:55:01;;;;;;;4.80;1.08;;;;;;;4.95;100.00;95139.13;5012916;28;20129;-75
2023/03/26 02:57:28;;;;;;;4.53;1.40;;;;;;;4.91;100.00;95137.63;5012904;28;20045;-75
2023/03/26 02:59:54;;;;;;;3.17;1.23;;;;;;;4.94;100.00;95127.19;5012643;28;20049;-75
2023/03/26 03:02:23;;;;;;;2.83;1.20;;;;;;;4.91;100.00;95124.78;5012324;28;20512;-75
2023/03/26 03:04:51;;;;;;;3.20;1.25;;;;;;;5.00;100.00;95115.78;5012910;28;20100;-75
2023/03/26 03:07:19;;;;;;;4.78;1.30;;;;;;;4.82;100.00;95114.97;5012773;28;20084;-75
2023/03/26 03:09:45;;;;;;;5.20;1.50;;;;;;;4.78;100.00;95111.75;5012842;28;20133;-75
2023/03/26 03:12:12;;;;;;;4.63;1.60;;;;;;;4.82;100.00;95115.84;5012420;28;20053;-75
2023/03/26 03:14:39;;;;;;;2.92;1.38;;;;;;;4.88;100.00;95106.16;5012694;28;20053;-75
2023/03/26 03:17:06;;;;;;;2.30;0.80;;;;;;;4.76;100.00;95097.34;5009378;28;20053;-76
2023/03/26 03:19:32;;;;;;;3.75;1.15;;;;;;;4.69;100.00;95083.16;5012296;28;20492;-77
2023/03/26 03:22:00;;;;;;;3.78;1.20;;;;;;;4.65;100.00;95085.06;5012131;28;20556;-75
2023/03/26 03:24:26;;;;;;;3.47;1.60;;;;;;;4.75;100.00;95080.31;5012521;28;20057;-75
2023/03/26 03:26:56;;;;;;;4.95;1.30;;;;;;;4.78;100.00;95080.97;5011929;28;20129;-75
2023/03/26 03:29:23;;;;;;;4.97;1.73;;;;;;;4.84;100.00;95084.94;5012479;28;20133;-75
2023/03/26 03:31:50;;;;;;;7.93;2.17;;;;;;;4.74;100.00;95088.88;5012161;28;20074;-75
2023/03/26 03:34:16;;;;;;;7.50;1.80;;;;;;;4.71;100.00;95083.91;5012024;28;20140;-76
2023/03/26 03:36:47;;;;;;;5.63;1.65;;;;;;;4.66;100.00;95079.03;5012063;28;20056;-75
2023/03/26 03:39:15;;;;;;;5.68;1.25;;;;;;;4.71;100.00;95078.78;5010411;28;20575;-76
2023/03/26 03:41:42;;;;;;;1.73;1.20;;;;;;;4.73;100.00;95076.97;5011301;28;20407;-75
2023/03/26 03:44:08;;;;;;;4.28;1.55;;;;;;;4.82;100.00;95064.53;5011568;28;20123;-75
2023/03/26 03:46:35;;;;;;;3.40;1.52;;;;;;;4.89;100.00;95057.31;5009982;28;20046;-75
2023/03/26 03:49:02;;;;;;;2.47;0.98;;;;;;;4.94;100.00;95050.22;5012131;28;20129;-75
2023/03/26 03:51:28;;;;;;;3.60;1.25;;;;;;;4.97;100.00;95050.06;5011632;28;20046;-75
2023/03/26 03:53:55;;;;;;;4.72;1.40;;;;;;;4.99;100.00;95055.09;5011674;28;20057;-75
2023/03/26 03:56:24;;;;;;;9.98;1.73;;;;;;;5.06;100.00;95052.13;5011476;28;20081;-75
2023/03/26 03:58:51;;;;;;;3.50;0.93;;;;;;;5.09;100.00;95056.28;5007113;28;20041;-76
2023/03/26 04:01:21;;;;;;;3.97;1.10;;;;;;;4.92;100.00;95049.47;5011322;28;20420;-76
2023/03/26 04:03:48;;;;;;;3.80;1.77;;;;;;;4.97;100.00;95052.63;5011752;28;20049;-76
2023/03/26 04:06:17;;;;;;;5.32;1.52;;;;;;;4.99;100.00;95037.97;5011648;28;20057;-75
2023/03/26 04:08:44;;;;;;;4.18;1.55;;;;;;;4.97;100.00;95042.38;5011682;28;20053;-75
2023/03/26 04:11:11;;;;;;;6.60;1.90;;;;;;;4.83;100.00;95032.81;5011117;28;20045;-75
2023/03/26 04:13:39;;;;;;;6.68;1.80;;;;;;;4.77;100.00;95020.28;5011561;28;20053;-75
2023/03/26 04:16:06;;;;;;;4.90;1.35;;;;;;;4.81;100.00;95010.69;5011222;28;20061;-75
2023/03/26 04:18:33;;;;;;;4.20;1.48;;;;;;;4.89;100.00;95007.75;5011330;28;20420;-75
2023/03/26 04:21:01;;;;;;;4.47;1.33;;;;;;;4.97;100.00;95013.28;5011460;28;20053;-74
2023/03/26 04:23:29;;;;;;;4.35;1.70;;;;;;;4.88;100.00;95008.66;5007775;28;20049;-77
2023/03/26 04:25:56;;;;;;;6.03;1.60;;;;;;;4.89;100.00;95002.59;5011252;28;20041;-75
2023/03/26 04:28:29;;;;;;;3.10;1.40;;;;;;;4.79;100.00;95008.22;5011001;28;20070;-75
2023/03/26 04:31:00;;;;;;;2.55;1.35;;;;;;;4.69;100.00;95007.03;5011426;28;20046;-75
2023/03/26 04:33:29;;;;;;;3.88;1.77;;;;;;;4.68;100.00;94996.88;5011335;28;20046;-76
2023/03/26 04:36:00;;;;;;;3.50;1.27;;;;;;;4.71;100.00;94984.72;5011151;28;20042;-76
2023/03/26 04:38:27;;;;;;;3.75;1.38;;;;;;;4.76;100.00;94984.47;5011212;28;20077;-75
2023/03/26 04:40:58;;;;;;;5.90;1.70;;;;;;;4.81;100.00;94979.91;5006396;28;20057;-75
2023/03/26 04:43:26;;;;;;;3.15;1.25;;;;;;;4.77;100.00;94981.81;5010806;28;20045;-75
2023/03/26 04:45:53;;;;;;;4.82;1.48;;;;;;;4.77;100.00;94973.28;5010879;28;20496;-77
2023/03/26 04:48:21;;;;;;;10.00;1.90;;;;;;;4.82;100.00;94969.59;5010795;28;20057;-74
2023/03/26 04:50:47;;;;;;;4.80;1.30;;;;;;;4.87;100.00;94964.22;5010529;28;20050;-75
2023/03/26 04:53:16;;;;;;;3.53;1.58;;;;;;;4.86;100.00;94967.69;5013574;28;20053;-77
2023/03/26 04:55:47;;;;;;;8.68;1.92;;;;;;;4.80;100.00;94968.00;5014740;28;20539;-76
2023/03/26 04:58:14;;;;;;;4.13;1.77;;;;;;;4.72;100.00;94965.03;5013518;28;20560;-75
2023/03/26 05:00:41;;;;;;;5.85;1.63;;;;;;;4.81;100.00;94954.25;5014833;28;20054;-75
2023/03/26 05:03:10;;;;;;;5.00;1.75;;;;;;;4.78;100.00;94949.28;5012180;28;20046;-76
2023/03/26 05:05:39;;;;;;;7.80;1.80;;;;;;;4.73;100.00;94951.28;5014619;28;20052;-75
2023/03/26 05:08:06;;;;;;;3.85;1.38;;;;;;;4.74;100.00;94948.63;5013125;28;20057;-75
2023/03/26 05:10:32;;;;;;;6.85;1.65;;;;;;;4.79;100.00;94936.41;5014843;28;20046;-75
2023/03/26 05:12:59;;;;;;;4.75;1.70;;;;;;;4.89;100.00;94935.91;5014510;28;20057;-76
2023/03/26 05:15:25;;;;;;;4.55;1.40;;;;;;;4.92;100.00;94934.00;5014216;28;20045;-76
2023/03/26 05:17:54;;;;;;;4.90;1.77;;;;;;;4.97;100.00;94919.19;5014183;28;20068;-75
2023/03/26 05:20:23;;;;;;;4.43;1.42;;;;;;;4.99;100.00;94914.78;5014302;28;20046;-75
2023/03/26 05:22:51;;;;;;;9.63;1.52;;;;;;;5.05;100.00;94913.66;5014689;28;20053;-75
2023/03/26 05:25:18;;;;;;;2.78;1.50;;;;;;;5.06;100.00;94910.16;5013938;28;20412;-77
2023/03/26 05:27:45;;;;;;;3.35;1.50;;;;;;;5.03;100.00;94902.63;5014480;28;20415;-76
2023/03/26 05:30:14;;;;;;;4.18;1.77;;;;;;;5.13;100.00;94897.81;5013967;28;20050;-76
2023/03/26 05:32:41;;;;;;;3.25;1.70;;;;;;;4.96;100.00;94891.84;5010190;28;20124;-75
2023/03/26 05:35:08;;;;;;;4.88;1.60;;;;;;;4.87;100.00;94889.81;5013935;28;20061;-76
2023/03/26 05:37:36;;;;;;;3.92;1.50;;;;;;;4.81;100.00;94893.53;5014250;28;20045;-76
2023/03/26 05:40:10;;;;;;;4.35;1.52;;;;;;;4.95;100.00;94874.81;5014065;28;20574;-75
2023/03/26 05:42:37;;;;;;;3.65;1.50;;;;;;;4.97;100.00;94878.13;5011345;28;20038;-76
2023/03/26 05:45:04;;;;;;;8.50;1.80;;;;;;;4.89;100.00;94867.44;5013855;28;20046;-75
2023/03/26 05:47:30;;;;;;;5.43;2.00;;;;;;;4.98;100.00;94859.25;5013771;28;20531;-76
2023/03/26 05:49:58;;;;;;;4.68;1.75;;;;;;;5.00;100.00;94846.31;5014142;28;20125;-75
2023/03/26 05:52:24;;;;;;;9.60;2.58;;;;;;;5.04;100.00;94842.69;5013835;28;20045;-76
2023/03/26 05:54:51;;;;;;;4.93;1.52;;;;;;;5.13;100.00;94844.75;5013506;28;20100;-75
2023/03/26 05:57:21;;;;;;;5.95;2.28;;;;;;;5.12;100.00;94837.09;5013391;28;20050;-75
2023/03/26 05:59:47;;;;;;;15.38;7.68;;;;;;;5.12;100.00;94840.53;5011462;28;20052;-76
2023/03/26 06:02:14;;;;;;;16.40;8.48;;;;;;;5.14;100.00;94837.88;5013949;28;20054;-75
2023/03/26 06:04:41;;;;;;;10.60;3.63;;;;;;;5.07;100.00;94845.91;5013372;28;20050;-77
2023/03/26 06:07:08;;;;;;;6.55;2.33;;;;;;;5.17;100.00;94824.88;5013482;28;20564;-75
2023/03/26 06:09:36;;;;;;;3.90;1.85;;;;;;;5.11;100.00;94831.16;5013754;28;20050;-75
2023/03/26 06:12:03;;;;;;;5.07;1.48;;;;;;;5.03;100.00;94821.31;5012553;28;20038;-73
2023/03/26 06:14:31;;;;;;;8.05;1.80;;;;;;;4.96;100.00;94825.13;5013470;28;20049;-75
2023/03/26 06:16:57;;;;;;;8.88;1.80;;;;;;;4.97;100.00;94818.25;5007831;28;20567;-74
2023/03/26 06:19:24;;;;;;;9.00;2.03;;;;;;;4.96;100.00;94817.44;5013643;28;20050;-77
2023/03/26 06:21:50;;;;;;;4.68;1.73;;;;;;;4.97;100.00;94814.00;5013212;28;20050;-75
2023/03/26 06:24:18;;;;;;;6.53;1.60;;;;;;;4.95;100.00;94810.66;5013319;28;20054;-75
2023/03/26 06:26:45;;;;;;;5.75;1.88;;;;;;;4.81;100.00;94805.47;5011923;28;20129;-75
2023/03/26 06:29:11;;;;;;;5.82;1.60;;;;;;;4.80;100.00;94807.22;5013597;28;20053;-76
2023/03/26 06:31:40;;;;;;;2.03;1.20;;;;;;;4.93;100.00;94801.41;5013209;28;20530;-75
2023/03/26 06:34:07;;;;;;;4.90;1.73;;;;;;;4.95;100.00;94785.00;5012964;28;20046;-75
2023/03/26 06:36:33;;;;;;;5.28;1.80;;;;;;;5.05;100.00;94787.88;5013061;28;20057;-75
2023/03/26 06:39:00;;;;;;;4.03;1.35;;;;;;;5.05;100.00;94778.44;5013347;28;20046;-75
2023/03/26 06:41:27;;;;;;;4.35;1.75;;;;;;;4.97;100.00;94785.75;5013279;28;20049;-75
2023/03/26 06:43:53;;;;;;;5.20;2.00;;;;;;;4.96;100.00;94768.69;5012527;28;20042;-75
2023/03/26 06:46:22;;;;;;;9.77;2.17;;;;;;;5.07;100.00;94765.53;5013157;28;20050;-75
2023/03/26 06:48:50;;;;;;;4.30;1.73;;;;;;;5.15;100.00;94757.38;5012966;28;20120;-75
2023/03/26 06:51:17;;;;;;;6.95;2.22;;;;;;;5.12;100.00;94749.84;5012437;28;20420;-75
2023/03/26 06:53:43;;;;;;;6.05;1.92;;;;;;;5.09;100.00;94748.31;5012295;28;20042;-75
2023/03/26 06:56:10;;;;;;;7.35;2.05;;;;;;;5.17;100.00;94737.59;5012424;28;20050;-75
2023/03/26 06:58:36;;;;;;;5.90;2.50;;;;;;;5.27;100.00;94741.28;5013187;28;20046;-75
2023/03/26 07:01:03;;;;;;;5.47;2.10;;;;;;;5.31;100.00;94737.63;5012643;28;21083;-75
2023/03/26 07:03:30;;;;;;;4.40;1.90;;;;;;;5.24;100.00;94732.00;5011083;28;20049;-75
2023/03/26 07:05:58;;;;;;;6.18;2.30;;;;;;;5.27;100.00;94733.59;5012599;28;20501;-76
2023/03/26 07:08:24;;;;;;;7.40;2.47;;;;;;;5.33;100.00;94723.75;5006538;28;20046;-75
2023/03/26 07:10:51;;;;;;;5.43;2.08;;;;;;;5.31;100.00;94719.66;5012645;28;20049;-75
2023/03/26 07:13:17;;;;;;;6.40;2.03;;;;;;;5.24;100.00;94716.59;5012250;28;20048;-76
2023/03/26 07:15:43;;;;;;;6.03;2.28;;;;;;;5.29;100.00;94706.06;5011337;28;20053;-75
2023/03/26 07:18:10;;;;;;;6.57;2.35;;;;;;;5.31;100.00;94701.69;5012513;28;20060;-75
2023/03/26 07:20:37;;;;;;;4.68;2.35;;;;;;;5.37;100.00;94703.03;5010017;28;20488;-75
2023/03/26 07:23:06;;;;;;;7.03;2.50;;;;;;;5.33;100.00;94704.97;5012421;28;20054;-75
2023/03/26 07:25:33;;;;;;;7.55;2.42;;;;;;;5.44;100.00;94687.19;5012021;28;20518;-71
2023/03/26 07:28:07;;;;;;;8.80;2.42;;;;;;;5.38;100.00;94705.53;5016411;28;20046;-76
2023/03/26 07:30:46;;;;;;;9.77;2.95;;;;;;;5.41;100.00;94674.50;5004291;28;20046;-75
2023/03/26 07:33:18;;;;;;;6.95;2.35;;;;;;;5.38;100.00;94684.16;5009895;28;20046;-75
2023/03/26 07:35:51;;;;;;;12.75;2.03;;;;;;;5.38;100.00;94687.56;5009531;28;20053;-76
2023/03/26 07:38:33;;;;;;;6.75;2.17;;;;;;;5.21;100.00;94703.13;5010766;28;20061;-75
2023/03/26 07:41:09;;;;;;;6.90;2.47;;;;;;;5.13;100.00;94692.50;5010168;28;20527;-76
2023/03/26 07:44:06;;;;;;;7.07;2.03;;;;;;;5.15;100.00;94677.81;5009381;28;20079;-75
2023/03/26 07:46:35;;;;;;;5.60;1.55;;;;;;;5.02;100.00;94665.72;5003149;28;20054;-75
2023/03/26 07:49:03;;;;;;;3.58;1.40;;;;;;;5.02;100.00;94660.56;5012106;28;20144;-76
2023/03/26 07:51:30;;;;;;;4.28;1.60;;;;;;;4.99;100.00;94665.06;5007853;28;20456;-76
2023/03/26 07:53:59;;;;;;;9.10;2.10;;;;;;;5.08;100.00;94660.22;5011848;28;20042;-75
2023/03/26 07:56:33;;;;;;;7.43;2.05;;;;;;;5.03;100.00;94654.53;5008342;28;20053;-76
2023/03/26 07:59:11;;;;;;;6.60;2.15;;;;;;;5.05;100.00;94649.31;5011454;28;20045;-75
2023/03/26 08:02:04;;;;;;;4.38;2.00;;;;;;;5.00;100.00;94657.25;5010244;28;20511;-75
2023/03/26 08:04:44;;;;;;;5.82;2.00;;;;;;;5.04;100.00;94647.66;5002813;28;20076;-75
2023/03/26 08:07:19;;;;;;;5.93;1.75;;;;;;;5.09;100.00;94646.47;5009063;28;20050;-74
2023/03/26 08:09:58;;;;;;;4.80;1.73;;;;;;;5.16;100.00;94649.50;5011947;28;20052;-75
2023/03/26 08:12:30;;;;;;;5.20;1.92;;;;;;;5.16;100.00;94646.13;5010050;28;20049;-75
2023/03/26 08:15:02;;;;;;;9.73;1.83;;;;;;;5.15;100.00;94644.44;5011311;28;20046;-76
2023/03/26 08:17:36;;;;;;;11.00;6.40;;;;;;;5.17;100.00;94635.75;5004421;28;20508;-74
2023/03/26 08:20:11;;;;;;;10.25;5.63;;;;;;;5.18;100.00;94636.56;5007644;28;20056;-74
2023/03/26 08:22:42;;;;;;;12.82;6.82;;;;;;;5.23;100.00;94622.56;5010124;28;20054;-74
2023/03/26 08:25:28;;;;;;;17.77;8.52;;;;;;;5.35;100.00;94615.84;5005753;28;20061;-74
2023/03/26 08:28:14;;;;;;;9.35;4.53;;;;;;;5.34;100.00;94615.03;5011027;28;20081;-74
2023/03/26 08:30:41;;;;;;;20.33;7.30;;;;;;;5.38;100.00;94622.53;5011452;28;20046;-74
2023/03/26 08:33:13;;;;;;;11.35;4.97;;;;;;;5.43;100.00;94616.19;5010829;28;20460;-74
2023/03/26 08:35:41;;;;;;;10.50;5.93;;;;;;;5.53;100.00;94625.00;5010748;28;20060;-74
2023/03/26 08:38:09;;;;;;;7.32;4.00;;;;;;;5.58;100.00;94612.69;5010978;28;20056;-74
2023/03/26 08:40:54;;;;;;;10.05;5.07;;;;;;;5.51;100.00;94620.88;5011144;28;20045;-74
2023/03/26 08:43:46;;;;;;;5.38;3.63;;;;;;;5.63;100.00;94614.16;5011381;28;20046;-74
2023/03/26 08:46:31;;;;;;;7.60;3.28;;;;;;;5.67;100.00;94613.84;5008481;28;20057;-74
2023/03/26 08:49:12;;;;;;;4.75;2.53;;;;;;;5.72;100.00;94611.84;5011158;28;20050;-74
2023/03/26 08:52:23;;;;;;;7.40;2.85;;;;;;;5.93;100.00;94616.56;5003974;28;20104;-73
2023/03/26 08:55:20;;;;;;;7.00;2.60;;;;;;;6.44;100.00;94612.41;5010577;28;20053;-73
2023/03/26 08:58:10;;;;;;;8.43;2.80;;;;;;;6.81;100.00;94607.44;5007682;28;20517;-74
2023/03/26 09:00:58;;;;;;;7.18;2.50;;;;;;;6.61;100.00;94610.50;5004081;28;20061;-74
2023/03/26 09:03:53;;;;;;;5.60;2.28;;;;;;;6.70;100.00;94605.56;5009867;28;20073;-74
2023/03/26 09:06:50;;;;;;;6.00;1.75;;;;;;;7.06;100.00;94601.47;5010255;28;20054;-73
2023/03/26 09:09:53;;;;;;;8.90;2.58;;;;;;;7.41;100.00;94606.78;5010016;28;20049;-73
2023/03/26 09:12:44;;;;;;;5.07;2.10;;;;;;;7.42;100.00;94603.28;4999971;28;20057;-74
2023/03/26 09:15:43;;;;;;;4.57;1.80;;;;;;;7.47;100.00;94602.97;4999645;28;20061;-74
2023/03/26 09:18:48;;;;;;;2.10;1.20;;;;;;;7.52;100.00;94604.28;5002511;28;20521;-73
2023/03/26 09:21:48;;;;;;;3.70;1.60;;;;;;;7.55;100.00;94605.84;5002935;28;20160;-74
2023/03/26 09:24:46;;;;;;;6.40;2.17;;;;;;;7.80;100.00;94607.53;5003891;28;20056;-74
2023/03/26 09:27:34;;;;;;;3.45;1.45;;;;;;;8.32;100.00;94613.31;5006124;28;20060;-74
2023/03/26 09:30:32;;;;;;;2.00;1.05;;;;;;;8.56;100.00;94610.72;5001889;28;20155;-73
2023/03/26 09:33:48;;;;;;;4.70;1.25;;;;;;;8.60;100.00;94617.28;5004268;28;20413;-73
2023/03/26 09:36:21;;;;;;;4.95;1.30;;;;;;;8.54;100.00;94610.84;5008137;28;20046;-73
2023/03/26 09:38:52;;;;;;;1.77;1.20;;;;;;;8.56;100.00;94614.13;5008222;28;20093;-74
2023/03/26 09:41:32;;;;;;;3.58;1.20;;;;;;;8.71;100.00;94604.41;5007957;28;20081;-74
2023/03/26 09:44:35;;;;;;;0.88;0.70;;;;;;;8.66;100.00;94609.13;5009358;28;20046;-74
2023/03/26 09:47:29;;;;;;;2.90;0.77;;;;;;;8.57;100.00;94620.94;5011555;28;20053;-73
2023/03/26 09:50:15;;;;;;;12.70;0.90;;;;;;;8.63;100.00;94622.25;5011396;28;20046;-73
2023/03/26 09:52:54;;;;;;;2.28;0.90;;;;;;;8.60;100.00;94635.34;5009128;28;20245;-74
2023/03/26 09:55:42;;;;;;;10.48;0.82;;;;;;;8.57;100.00;94631.28;5007696;28;20054;-74
2023/03/26 09:58:33;;;;;;;1.08;0.60;;;;;;;8.57;100.00;94625.28;5013324;28;20398;-74
2023/03/26 10:01:07;;;;;;;3.08;1.00;;;;;;;9.05;100.00;94619.97;5009486;28;20057;-74
2023/03/26 10:03:46;;;;;;;3.45;1.10;;;;;;;9.00;100.00;94624.69;5012587;28;20132;-74
2023/03/26 10:06:26;;;;;;;4.72;0.95;;;;;;;9.09;100.00;94622.25;5013699;28;20057;-74
2023/03/26 10:09:07;;;;;;;1.77;0.90;;;;;;;9.20;100.00;94619.66;5014394;28;20057;-74
2023/03/26 10:11:51;;;;;;;4.30;0.93;;;;;;;9.12;100.00;94616.84;5011239;28;20041;-74
2023/03/26 10:14:24;;;;;;;2.42;0.80;;;;;;;9.37;100.00;94620.94;5012030;28;20049;-73
2023/03/26 10:17:03;;;;;;;2.58;1.00;;;;;;;9.44;100.00;94604.03;5013916;28;20080;-74
2023/03/26 10:19:59;;;;;;;2.65;0.88;;;;;;;9.41;100.00;94601.69;5013864;28;20042;-74
2023/03/26 10:22:46;;;;;;;3.00;0.70;;;;;;;9.50;100.00;94615.69;5010467;28;20065;-74
2023/03/26 10:25:36;;;;;;;2.92;0.77;;;;;;;9.86;100.00;94600.81;5013288;28;20417;-74
2023/03/26 10:28:21;;;;;;;2.10;0.90;;;;;;;9.91;100.00;94603.88;5009508;28;20050;-74
2023/03/26 10:31:04;;;;;;;2.55;0.60;;;;;;;10.07;100.00;94596.53;5007292;28;20500;-74
2023/03/26 10:33:45;;;;;;;1.33;0.68;;;;;;;9.94;100.00;94601.06;5010278;28;20508;-74
2023/03/26 10:36:28;;;;;;;1.17;0.50;;;;;;;10.15;100.00;94619.22;5012912;28;20046;-73
2023/03/26 10:39:02;;;;;;;;;;;;;;;10.27;100.00;94601.91;5013805;28;20053;-74
2023/03/26 10:41:40;;;;;;;2.25;0.77;;;;;;;10.22;100.00;94609.22;5011431;28;20402;-74
2023/03/26 10:44:30;;;;;;;6.47;0.77;;;;;;;10.18;100.00;94609.44;5011494;28;20057;-73
2023/03/26 10:47:15;;;;;;;2.17;1.00;;;;;;;9.94;100.00;94614.00;5012787;28;20069;-74
2023/03/26 10:49:51;;;;;;;;;;;;;;;10.17;100.00;94613.00;5011959;28;20068;-74
2023/03/26 10:52:21;;;;;;;1.73;0.82;;;;;;;10.48;100.00;94602.78;5012744;28;19961;-74
2023/03/26 10:54:57;;;;;;;3.00;0.88;;;;;;;10.65;100.00;94601.44;5010977;28;20050;-73
2023/03/26 10:57:39;;;;;;;3.85;0.90;;;;;;;10.60;97.80;94599.19;5012601;28;20508;-74
2023/03/26 11:00:16;;;;;;;1.63;0.80;;;;;;;10.66;97.19;94595.31;5009705;28;20050;-74
2023/03/26 11:02:47;;;;;;;;;;;;;;;10.49;95.13;94599.25;5013093;28;20057;-73
2023/03/26 11:05:26;;;;;;;;;;;;;;;10.50;99.02;94592.31;5013104;28;20275;-73
2023/03/26 11:07:57;;;;;;;;;;;;;;;10.56;95.92;94594.41;5011939;28;19941;-74
2023/03/26 11:10:30;;;;;;;;;;;;;;;10.55;94.21;94598.75;5013003;28;19932;-73
2023/03/26 11:13:00;;;;;;;;;;;;;;;10.63;98.41;94595.53;5012754;28;19929;-74
2023/03/26 11:15:30;;;;;;;;;;;;;;;10.73;94.55;94593.84;5012889;28;19928;-73
2023/03/26 11:18:03;;;;;;;;;;;;;;;10.58;95.23;94597.69;5013073;28;20348;-74
2023/03/26 11:20:34;;;;;;;;;;;;;;;10.57;96.94;94601.25;5012881;28;19932;-70
2023/03/26 11:23:11;;;;;;;;;;;;;;;10.44;93.88;94588.44;5013174;28;19933;-74
2023/03/26 11:25:45;;;;;;;;;;;;;;;10.63;95.53;94577.41;5006015;28;19928;-74
2023/03/26 11:28:19;;;;;;;;;;;;;;;10.91;92.41;94583.75;5017458;28;19922;-74
2023/03/26 11:30:48;;;;;;;;;;;;;;;10.74;93.50;94582.53;5007320;28;19921;-74
2023/03/26 11:33:18;;;;;;;;;;;;;;;10.74;88.54;94573.94;5012366;28;19921;-74
2023/03/26 11:35:47;;;;;;;;;;;;;;;11.06;92.50;94584.25;5010732;28;20376;-73
2023/03/26 11:38:16;;;;;;;;;;;;;;;11.03;86.75;94574.94;5012168;28;19921;-74
2023/03/26 11:40:49;;;;;;;;;;;;;;;11.13;85.24;94583.59;5012065;28;19928;-74
2023/03/26 11:43:16;;;;;;;;;;;;;;;11.19;80.94;94581.44;5012166;28;20403;-74
2023/03/26 11:45:44;;;;;;;;;;;;;;;11.34;80.92;94583.53;5010835;28;19979;-74
2023/03/26 11:48:15;;;;;;;;;;;;;;;11.44;79.28;94577.59;5013151;28;19921;-74
2023/03/26 11:50:44;;;;;;;;;;;;;;;11.50;78.08;94577.91;5003803;28;20364;-74
2023/03/26 11:53:12;;;;;;;;;;;;;;;11.12;73.80;94586.31;5011559;28;20368;-74
2023/03/26 11:55:39;;;;;;;;;;;;;;;11.37;78.18;94574.69;5011986;28;19960;-74
2023/03/26 11:58:16;;;;;;;;;;;;;;;11.62;80.52;94584.63;5011663;28;20323;-74
2023/03/26 12:00:44;;;;;;;;;;;;;;;11.34;71.99;94591.31;5005380;28;20016;-74
2023/03/26 12:03:14;;;;;;;;;;;;;;;11.35;70.99;94592.97;5009291;28;19922;-73